Home

Weather

KSLC Current Conditions

KSLC 110854Z 34007KT 6SM BR OVC011 00/M02 A3027 RMK AO2 SLP261 T00001022 51006

KSLC Aviation Forecast

TAF AMD KSLC 110833Z 1109/1212 31007KT 5SM BR BKN010 FM111200 15005KT 5SM BR BKN015 FM111900 34004KT 6SM BR SCT015 SCT030 FM120300 16005KT 5SM BR SCT015 SCT030


32° F
Overcast
Overcast

Partly Cloudy
Tuesday
Partly Cloudy
High 36°/Low 29°
10%
Snow
Wednesday
Snow
High 35°/Low 20°
90%
Clear
Thursday
Clear
High 35°/Low 23°
0%
Clear
Friday
Clear
High 41°/Low 30°
0%
Clear
Saturday
Clear
High 42°/Low 26°
10%
Clear
Sunday
Clear
High 45°/Low 30°
0%